Main page
METAR-TAF:

METAR-TAF

Airports :

Antonio B. Won Pat International Airport

Hagåtña, Guam, United States

latitude: 13-29N, longitude: 144-48E, elevation: 91 m

Current weather observation

The report was made 28 minutes ago, at 09:54 UTC
Calm wind
Temperature 27°C
Humidity 79%
Pressure 1010 hPa
Visibility: 16.1 km
Clear sky

METAR: PGUM 140954Z 00000KT 10SM CLR 27/23 A2983 RMK AO2 SLP092 T02720228

Time: 20:22 (10:22 UTC)

Forecast

The report was made 4 hours and 36 minutes ago, at 05:46 UTC
Forecast valid from 14 at 06 UTC to 15 at 12 UTC
Wind 11 kt from the North
Visibility: 10 km
Few clouds at a height of 2200 ft
From 14 at 2000 UTC
Wind 8 kt from the East
Visibility: 10 km
Scattered clouds at a height of 2000 ft
Scattered clouds at a height of 5000 ft
showers in vicinity

TAF: PGUM 140546Z 1406/1512 35011KT P6SM FEW022 FM142000 10008KT P6SM VCSH SCT020 SCT050

Weather observations and forecasts of more than 4000 airports (METAR and TAF reports).

The available stations are represented by yellow and red dots on the map.

Hover mouse over dot to see the name of the station.

Then click to see weather observations and forecasts.

To change the map : click on the green buttons with a black cross to zoom in, on the green button with a dash to zoom out, or on the green arrows for adjacent maps.


METAR-TAF: